createdAt,value
2022-12-15T00:02:03.341Z,99010.09
2022-12-15T00:04:53.378Z,99014.05
2022-12-15T00:07:43.085Z,99013.08
2022-12-15T00:10:32.889Z,99010.31
2022-12-15T00:13:22.595Z,99007.27
2022-12-15T00:16:12.533Z,99009.19
2022-12-15T00:19:02.801Z,99010.20
2022-12-15T00:21:52.910Z,99009.97
2022-12-15T00:24:42.846Z,99008.02
2022-12-15T00:27:32.832Z,99007.46
2022-12-15T00:30:23.128Z,99010.68
2022-12-15T00:33:12.890Z,99010.61
2022-12-15T00:36:02.538Z,99006.41
2022-12-15T00:38:47.658Z,99002.13
2022-12-15T00:41:21.135Z,98996.63
2022-12-15T00:43:53.247Z,98997.48
2022-12-15T00:46:43.211Z,99000.38
2022-12-15T00:49:29.434Z,98997.25
2022-12-15T00:52:19.262Z,98998.20
2022-12-15T00:55:09.200Z,99002.90
2022-12-15T00:57:59.518Z,99007.16
2022-12-15T01:00:49.547Z,99007.20
2022-12-15T01:03:42.075Z,99003.80
2022-12-15T01:06:34.730Z,98999.42
2022-12-15T01:09:26.167Z,98999.00
2022-12-15T01:12:16.076Z,98996.95
2022-12-15T01:15:05.711Z,98995.11
2022-12-15T01:17:55.510Z,98997.11
2022-12-15T01:20:27.628Z,98993.66
2022-12-15T01:22:59.798Z,98993.95
2022-12-15T01:25:31.966Z,98990.75
2022-12-15T01:28:04.213Z,98990.80
2022-12-15T01:30:36.685Z,98988.90
2022-12-15T01:33:09.365Z,98988.23
2022-12-15T01:35:41.584Z,98992.30
2022-12-15T01:38:13.984Z,98991.70
2022-12-15T01:40:53.807Z,98992.80
2022-12-15T01:43:29.242Z,98993.77
2022-12-15T01:46:05.929Z,98991.63
2022-12-15T01:48:45.520Z,98995.39
2022-12-15T01:51:25.190Z,98996.88
2022-12-15T01:54:03.933Z,98991.96
2022-12-15T01:56:38.867Z,98999.40
2022-12-15T01:59:16.236Z,99004.23
2022-12-15T02:01:49.990Z,99008.00
2022-12-15T02:04:24.570Z,99010.09
2022-12-15T02:06:56.935Z,99010.75
2022-12-15T02:09:29.763Z,99010.29
2022-12-15T02:12:08.337Z,99011.09
2022-12-15T02:14:54.923Z,99008.55
2022-12-15T02:17:38.277Z,99004.09
2022-12-15T02:20:34.943Z,99002.54
2022-12-15T02:23:35.455Z,99005.23
2022-12-15T02:26:53.038Z,99001.09
2022-12-15T02:29:45.784Z,99002.75
2022-12-15T02:32:23.150Z,98999.66
2022-12-15T02:35:02.845Z,98998.05
2022-12-15T02:37:37.034Z,98998.79
2022-12-15T02:40:12.303Z,99003.58
2022-12-15T02:42:48.975Z,99003.52
2022-12-15T02:45:25.917Z,99001.77
2022-12-15T02:48:10.973Z,98994.83
2022-12-15T02:50:53.615Z,98996.19
2022-12-15T02:53:57.017Z,99001.00
2022-12-15T02:56:35.915Z,98999.38
2022-12-15T02:59:15.355Z,99003.50
2022-12-15T03:01:53.827Z,99006.52
2022-12-15T03:04:27.088Z,99007.11
2022-12-15T03:07:03.252Z,99011.70
2022-12-15T03:09:35.590Z,99018.13
2022-12-15T03:12:10.665Z,99022.83
2022-12-15T03:14:41.215Z,99025.00
2022-12-15T03:17:13.409Z,99021.11
2022-12-15T03:19:45.663Z,99017.27
2022-12-15T03:22:22.251Z,99016.14
2022-12-15T03:24:54.444Z,99009.73
2022-12-15T03:27:26.566Z,99012.08
2022-12-15T03:29:58.871Z,99014.17
2022-12-15T03:32:31.881Z,99011.61
2022-12-15T03:35:04.090Z,99013.16
2022-12-15T03:37:36.235Z,99011.09
2022-12-15T03:40:11.596Z,99016.30
2022-12-15T03:42:49.609Z,99018.74
2022-12-15T03:45:24.303Z,99013.85
2022-12-15T03:47:57.809Z,99017.02
2022-12-15T03:50:31.239Z,99022.65
2022-12-15T03:53:05.367Z,99024.60
2022-12-15T03:55:37.717Z,99024.82
2022-12-15T03:58:09.837Z,99030.54
2022-12-15T04:00:41.976Z,99033.22
2022-12-15T04:03:14.192Z,99032.29
2022-12-15T04:05:46.314Z,99035.21
2022-12-15T04:08:18.483Z,99038.23
2022-12-15T04:10:50.624Z,99045.95
2022-12-15T04:13:22.806Z,99051.89
2022-12-15T04:15:55.118Z,99053.85
2022-12-15T04:18:27.234Z,99053.78
2022-12-15T04:20:59.399Z,99048.40
2022-12-15T04:23:31.945Z,99044.73
2022-12-15T04:26:22.193Z,99042.54
2022-12-15T04:29:11.873Z,99037.58
2022-12-15T04:32:02.882Z,99036.80
2022-12-15T04:34:52.819Z,99039.63
2022-12-15T04:37:42.623Z,99039.25
2022-12-15T04:40:32.688Z,99039.35
2022-12-15T04:43:23.160Z,99036.78
2022-12-15T04:46:13.667Z,99037.84
2022-12-15T04:49:03.465Z,99041.25
2022-12-15T04:51:53.838Z,99046.50
2022-12-15T04:54:43.974Z,99049.46
2022-12-15T04:57:33.602Z,99055.52
2022-12-15T05:00:24.251Z,99059.32
2022-12-15T05:03:29.638Z,99063.22
2022-12-15T05:06:19.788Z,99064.54
2022-12-15T05:09:09.591Z,99067.30
2022-12-15T05:11:59.858Z,99063.15
2022-12-15T05:14:49.686Z,99065.34
2022-12-15T05:17:41.671Z,99068.08
2022-12-15T05:20:31.996Z,99072.15
2022-12-15T05:23:21.857Z,99073.14
2022-12-15T05:26:11.893Z,99077.40
2022-12-15T05:29:01.810Z,99080.42
2022-12-15T05:31:52.840Z,99082.48
2022-12-15T05:34:27.410Z,99088.28
2022-12-15T05:37:01.423Z,99093.65
2022-12-15T05:39:33.542Z,99097.36
2022-12-15T05:42:05.913Z,99105.77
2022-12-15T05:44:37.903Z,99110.52
2022-12-15T05:47:11.837Z,99119.45
2022-12-15T05:49:43.987Z,99125.80
2022-12-15T05:52:16.046Z,99127.03
2022-12-15T05:54:48.188Z,99129.92
2022-12-15T05:57:20.306Z,99131.27
2022-12-15T05:59:52.449Z,99131.70
2022-12-15T06:02:24.549Z,99129.76
2022-12-15T06:04:56.850Z,99141.16
2022-12-15T06:07:29.058Z,99142.96
2022-12-15T06:10:01.225Z,99146.59
2022-12-15T06:12:33.679Z,99147.28
2022-12-15T06:15:07.060Z,99156.15
2022-12-15T06:17:39.240Z,99161.14
2022-12-15T06:20:12.968Z,99163.88
2022-12-15T06:22:49.688Z,99165.27
2022-12-15T06:25:22.352Z,99172.52
2022-12-15T06:27:59.941Z,99173.66
2022-12-15T06:30:33.879Z,99184.92
2022-12-15T06:33:05.944Z,99192.80
2022-12-15T06:35:39.907Z,99197.20
2022-12-15T06:38:12.100Z,99201.30
2022-12-15T06:40:44.345Z,99202.00
2022-12-15T06:43:16.537Z,99207.99
2022-12-15T06:45:52.523Z,99207.98
2022-12-15T06:48:25.686Z,99209.48
2022-12-15T06:50:57.942Z,99211.39
2022-12-15T06:53:30.375Z,99210.23
2022-12-15T06:56:05.008Z,99210.48
2022-12-15T06:58:37.226Z,99210.84
2022-12-15T07:01:09.938Z,99211.91
2022-12-15T07:03:42.758Z,99219.48
2022-12-15T07:06:17.239Z,99224.29
2022-12-15T07:08:53.891Z,99234.77
2022-12-15T07:11:26.439Z,99238.15
2022-12-15T07:13:58.530Z,99245.52
2022-12-15T07:16:31.369Z,99250.98
2022-12-15T07:19:03.762Z,99259.37
2022-12-15T07:21:36.211Z,99265.20
2022-12-15T07:24:10.416Z,99269.86
2022-12-15T07:26:42.799Z,99270.82
2022-12-15T07:29:21.135Z,99272.71
2022-12-15T07:31:56.156Z,99276.58
2022-12-15T07:34:28.368Z,99280.27
2022-12-15T07:37:00.486Z,99287.08
2022-12-15T07:39:32.656Z,99288.16
2022-12-15T07:42:04.926Z,99290.51
2022-12-15T07:44:39.064Z,99292.52
2022-12-15T07:47:11.261Z,99296.14
2022-12-15T07:49:43.350Z,99299.73
2022-12-15T07:52:15.675Z,99301.44
2022-12-15T07:54:48.127Z,99299.92
2022-12-15T07:57:21.032Z,99302.05
2022-12-15T07:59:53.354Z,99307.17
2022-12-15T08:02:25.464Z,99313.89
2022-12-15T08:04:57.869Z,99316.89
2022-12-15T08:07:29.994Z,99320.05
2022-12-15T08:10:02.079Z,99324.71
2022-12-15T08:12:34.297Z,99329.06
2022-12-15T08:15:09.662Z,99336.60
2022-12-15T08:17:41.937Z,99331.08
2022-12-15T08:20:15.366Z,99330.63
2022-12-15T08:22:47.552Z,99338.94
2022-12-15T08:25:19.769Z,99339.52
2022-12-15T08:27:54.147Z,99345.27
2022-12-15T08:30:26.445Z,99345.25
2022-12-15T08:32:58.584Z,99351.16
2022-12-15T08:35:55.094Z,99358.42
2022-12-15T08:38:22.783Z,99364.10
2022-12-15T08:40:54.977Z,99370.59
2022-12-15T08:43:27.118Z,99376.92
2022-12-15T08:46:00.657Z,99377.43
2022-12-15T08:48:32.825Z,99382.67
2022-12-15T08:51:05.410Z,99388.49
2022-12-15T08:53:39.301Z,99389.76
2022-12-15T08:56:14.158Z,99395.24
2022-12-15T08:58:46.794Z,99392.43
2022-12-15T09:01:23.662Z,99394.28
2022-12-15T09:03:58.078Z,99403.48
2022-12-15T09:06:33.275Z,99403.19
2022-12-15T09:09:08.512Z,99405.38
2022-12-15T09:11:40.686Z,99408.34
2022-12-15T09:14:12.814Z,99412.99
2022-12-15T09:16:45.118Z,99415.13
2022-12-15T09:19:17.393Z,99412.86
2022-12-15T09:21:49.617Z,99411.71
2022-12-15T09:24:32.239Z,99409.52
2022-12-15T09:27:07.080Z,99411.42
2022-12-15T09:29:39.198Z,99409.27
2022-12-15T09:32:14.224Z,99409.41
2022-12-15T09:34:46.662Z,99414.23
2022-12-15T09:37:18.929Z,99421.02
2022-12-15T09:39:51.071Z,99420.48
2022-12-15T09:42:29.051Z,99419.95
2022-12-15T09:45:08.541Z,99417.58
2022-12-15T09:47:46.289Z,99416.77
2022-12-15T09:50:21.506Z,99420.02
2022-12-15T09:52:59.432Z,99423.24
2022-12-15T09:55:33.347Z,99426.52
2022-12-15T09:58:15.945Z,99425.55
2022-12-15T10:00:55.894Z,99428.95
2022-12-15T10:03:45.798Z,99432.80
2022-12-15T10:06:23.197Z,99431.02
2022-12-15T10:09:01.622Z,99432.11
2022-12-15T10:11:48.542Z,99429.08
2022-12-15T10:14:33.068Z,99429.62
2022-12-15T10:17:21.564Z,99430.89
2022-12-15T10:20:02.160Z,99436.61
2022-12-15T10:22:37.377Z,99439.73
2022-12-15T10:25:23.558Z,99443.31
2022-12-15T10:28:35.650Z,99442.81
2022-12-15T10:31:19.612Z,99451.11
2022-12-15T10:33:59.009Z,99451.36
2022-12-15T10:36:31.794Z,99453.17
2022-12-15T10:39:03.933Z,99456.00
2022-12-15T10:41:36.146Z,99455.49
2022-12-15T10:44:32.034Z,99455.27
2022-12-15T10:47:12.770Z,99460.68
2022-12-15T10:49:44.935Z,99461.59
2022-12-15T10:52:25.068Z,99464.90
2022-12-15T10:54:58.031Z,99469.83
2022-12-15T10:57:33.685Z,99469.41
2022-12-15T11:00:29.480Z,99472.62
2022-12-15T11:03:02.278Z,99471.55
2022-12-15T11:05:36.092Z,99471.77
2022-12-15T11:08:19.383Z,99473.11
2022-12-15T11:11:13.505Z,99470.80
2022-12-15T11:14:07.357Z,99476.23
2022-12-15T11:16:48.951Z,99481.38
2022-12-15T11:19:30.047Z,99484.80
2022-12-15T11:22:10.434Z,99491.48
2022-12-15T11:24:51.177Z,99496.59
2022-12-15T11:27:29.541Z,99501.86
2022-12-15T11:30:11.718Z,99502.39
2022-12-15T11:32:47.368Z,99504.55
2022-12-15T11:35:24.170Z,99506.48
2022-12-15T11:38:02.381Z,99506.77
2022-12-15T11:40:39.884Z,99506.90
2022-12-15T11:43:32.782Z,99513.98
2022-12-15T11:46:24.486Z,99512.75
2022-12-15T11:49:16.509Z,99515.38
2022-12-15T11:51:54.980Z,99520.33
2022-12-15T11:54:36.313Z,99528.24
2022-12-15T11:57:24.890Z,99530.27
2022-12-15T12:00:08.766Z,99529.05
2022-12-15T12:03:00.722Z,99527.98
2022-12-15T12:05:49.446Z,99531.23
2022-12-15T12:08:47.086Z,99535.92
2022-12-15T12:11:29.225Z,99544.14
2022-12-15T12:14:29.594Z,99539.48
2022-12-15T12:17:08.263Z,99541.38
2022-12-15T12:19:45.578Z,99547.34
2022-12-15T12:22:30.677Z,99553.13
2022-12-15T12:25:06.272Z,99558.53
2022-12-15T12:27:48.640Z,99560.02
2022-12-15T12:30:25.149Z,99569.02
2022-12-15T12:33:04.360Z,99574.08
2022-12-15T12:35:45.692Z,99577.79
2022-12-15T12:38:31.688Z,99578.04
2022-12-15T12:41:09.176Z,99589.20
2022-12-15T12:43:44.548Z,99592.83
2022-12-15T12:46:26.723Z,99593.76
2022-12-15T12:49:05.215Z,99599.41
2022-12-15T12:51:39.302Z,99602.74
2022-12-15T12:54:44.706Z,99602.40
2022-12-15T13:01:27.594Z,99600.57
2022-12-15T13:04:11.930Z,99599.09
2022-12-15T13:07:11.519Z,99595.41
2022-12-15T13:09:47.767Z,99598.92
2022-12-15T13:12:51.649Z,99595.47
2022-12-15T13:15:39.446Z,99601.69
2022-12-15T13:18:19.925Z,99604.45
2022-12-15T13:20:55.150Z,99606.96
2022-12-15T13:23:47.132Z,99612.20
2022-12-15T13:26:22.657Z,99613.34
2022-12-15T13:28:59.233Z,99612.49
2022-12-15T13:31:43.210Z,99620.39
2022-12-15T13:34:24.380Z,99624.58
2022-12-15T13:37:01.332Z,99623.40
2022-12-15T13:39:51.777Z,99627.61
2022-12-15T13:42:45.374Z,99629.88
2022-12-15T13:45:36.617Z,99629.00
2022-12-15T13:48:19.275Z,99630.16
2022-12-15T13:50:57.950Z,99628.15
2022-12-15T13:53:34.083Z,99624.53
2022-12-15T13:56:20.794Z,99629.45
2022-12-15T13:58:59.110Z,99637.52
2022-12-15T14:01:33.690Z,99642.05
2022-12-15T14:04:15.923Z,99646.44
2022-12-15T14:06:54.198Z,99647.27
2022-12-15T14:09:32.359Z,99644.05
2022-12-15T14:12:07.290Z,99646.63
2022-12-15T14:14:49.226Z,99652.35
2022-12-15T14:17:21.917Z,99650.33
2022-12-15T14:19:54.165Z,99649.46
2022-12-15T14:22:30.180Z,99651.08
2022-12-15T14:25:05.204Z,99649.36
2022-12-15T14:27:37.323Z,99656.42
2022-12-15T14:30:19.428Z,99661.80
2022-12-15T14:32:55.587Z,99678.41
2022-12-15T14:35:37.842Z,99689.91
2022-12-15T14:38:14.260Z,99691.40
2022-12-15T14:40:49.167Z,99685.02
2022-12-15T14:43:21.750Z,99689.91
2022-12-15T14:46:06.448Z,99690.93
2022-12-15T14:48:43.386Z,99692.44
2022-12-15T14:51:17.467Z,99692.42
2022-12-15T14:53:53.450Z,99690.12
2022-12-15T14:56:31.180Z,99687.23
2022-12-15T14:59:05.885Z,99685.40
2022-12-15T15:01:41.388Z,99685.59
2022-12-15T15:03:16.116Z,99598.70
2022-12-15T15:04:29.323Z,99689.27
2022-12-15T15:07:03.533Z,99692.29
2022-12-15T15:09:40.369Z,99692.71
2022-12-15T15:12:18.300Z,99694.02
2022-12-15T15:14:54.599Z,99691.62
2022-12-15T15:17:32.303Z,99694.91
2022-12-15T15:20:07.179Z,99693.28
2022-12-15T15:22:42.039Z,99695.36
2022-12-15T15:25:39.996Z,99699.63
2022-12-15T15:28:25.316Z,99699.75
2022-12-15T15:31:00.702Z,99699.38
2022-12-15T15:33:33.310Z,99693.94
2022-12-15T15:36:11.471Z,99692.84
2022-12-15T15:38:46.754Z,99699.67
2022-12-15T15:41:22.822Z,99699.93
2022-12-15T15:43:54.938Z,99700.80
2022-12-15T15:46:30.136Z,99698.62
2022-12-15T15:49:06.727Z,99696.89
2022-12-15T15:51:39.046Z,99698.30
2022-12-15T15:54:17.665Z,99698.23
2022-12-15T15:56:49.789Z,99698.31
2022-12-15T15:59:22.896Z,99699.82
2022-12-15T16:01:57.797Z,99697.92
2022-12-15T16:04:30.332Z,99700.55
2022-12-15T16:07:02.474Z,99698.71
2022-12-15T16:09:36.002Z,99703.80
2022-12-15T16:12:11.623Z,99710.19
2022-12-15T16:14:43.770Z,99716.39
2022-12-15T16:17:17.268Z,99721.40
2022-12-15T16:19:50.035Z,99728.09
2022-12-15T16:22:23.675Z,99727.58
2022-12-15T16:24:56.535Z,99729.67
2022-12-15T16:27:28.702Z,99737.15
2022-12-15T16:30:00.844Z,99734.96
2022-12-15T16:32:33.349Z,99735.86
2022-12-15T16:35:06.053Z,99735.65
2022-12-15T16:37:39.721Z,99740.02
2022-12-15T16:40:20.540Z,99740.60
2022-12-15T16:42:58.686Z,99745.52
2022-12-15T16:45:32.211Z,99738.23
2022-12-15T16:48:04.497Z,99738.19
2022-12-15T16:50:39.343Z,99737.86
2022-12-15T16:53:18.471Z,99734.67
2022-12-15T16:55:56.704Z,99740.04
2022-12-15T16:58:30.800Z,99741.14
2022-12-15T17:01:04.048Z,99744.81
2022-12-15T17:03:36.481Z,99753.13
2022-12-15T17:06:10.359Z,99759.68
2022-12-15T17:08:45.661Z,99767.65
2022-12-15T17:11:21.361Z,99772.27
2022-12-15T17:13:55.271Z,99776.94
2022-12-15T17:16:29.481Z,99777.09
2022-12-15T17:19:01.756Z,99778.03
2022-12-15T17:21:36.767Z,99778.45
2022-12-15T17:24:13.710Z,99782.54
2022-12-15T17:26:46.211Z,99787.14
2022-12-15T17:29:20.261Z,99794.98
2022-12-15T17:31:52.670Z,99797.98
2022-12-15T17:34:31.362Z,99804.93
2022-12-15T17:37:06.365Z,99803.73
2022-12-15T17:39:38.841Z,99801.91
2022-12-15T17:42:19.733Z,99799.83
2022-12-15T17:44:52.192Z,99799.71
2022-12-15T17:47:25.554Z,99806.41
2022-12-15T17:49:57.727Z,99816.52
2022-12-15T17:52:34.526Z,99817.85
2022-12-15T17:55:18.500Z,99819.38
2022-12-15T17:57:51.488Z,99820.10
2022-12-15T18:00:28.415Z,99818.77
2022-12-15T18:03:01.814Z,99818.41
2022-12-15T18:05:34.789Z,99812.65
2022-12-15T18:08:15.264Z,99816.20
2022-12-15T18:10:48.533Z,99822.52
2022-12-15T18:13:23.082Z,99820.61
2022-12-15T18:15:56.346Z,99821.75
2022-12-15T18:18:28.622Z,99824.30
2022-12-15T18:21:04.527Z,99828.55
2022-12-15T18:23:37.363Z,99831.36
2022-12-15T18:26:10.758Z,99834.13
2022-12-15T18:28:44.052Z,99837.22
2022-12-15T18:31:22.265Z,99841.08
2022-12-15T18:34:00.961Z,99842.29
2022-12-15T18:36:35.434Z,99843.81
2022-12-15T18:39:19.857Z,99846.12
2022-12-15T18:41:54.818Z,99848.27
2022-12-15T18:44:28.971Z,99845.52
2022-12-15T18:47:01.634Z,99848.98
2022-12-15T18:49:33.912Z,99847.97
2022-12-15T18:52:06.645Z,99848.95
2022-12-15T18:54:39.117Z,99847.73
2022-12-15T18:57:27.163Z,99854.73
2022-12-15T19:00:04.374Z,99852.70
2022-12-15T19:02:36.646Z,99849.02
2022-12-15T19:05:27.621Z,99853.66
2022-12-15T19:08:03.896Z,99856.10
2022-12-15T19:10:38.569Z,99856.71
2022-12-15T19:13:15.239Z,99862.86
2022-12-15T19:15:47.921Z,99860.64
2022-12-15T19:18:39.031Z,99863.89
2022-12-15T19:21:44.611Z,99866.70
2022-12-15T19:24:18.830Z,99867.41
2022-12-15T19:26:51.020Z,99865.70
2022-12-15T19:29:23.994Z,99859.48
2022-12-15T19:31:56.140Z,99861.59
2022-12-15T19:34:28.339Z,99870.20
2022-12-15T19:37:02.380Z,99874.84
2022-12-15T19:39:37.186Z,99873.15
2022-12-15T19:42:18.979Z,99869.79
2022-12-15T19:44:52.248Z,99866.40
2022-12-15T19:47:24.393Z,99862.70
2022-12-15T19:49:56.534Z,99864.38
2022-12-15T19:52:29.421Z,99871.46
2022-12-15T19:55:02.412Z,99875.73
2022-12-15T19:57:34.738Z,99873.27
2022-12-15T20:00:15.547Z,99877.20
2022-12-15T20:02:48.175Z,99880.44
2022-12-15T20:05:21.420Z,99880.40
2022-12-15T20:07:55.691Z,99884.43
2022-12-15T20:10:32.501Z,99876.33
2022-12-15T20:13:05.048Z,99880.44
2022-12-15T20:15:37.671Z,99878.31
2022-12-15T20:18:10.122Z,99892.29
2022-12-15T20:20:45.210Z,99899.52
2022-12-15T20:23:18.404Z,99903.60
2022-12-15T20:25:50.799Z,99901.10
2022-12-15T20:28:25.757Z,99900.70
2022-12-15T20:30:57.320Z,99900.33
2022-12-15T20:33:29.973Z,99906.41
2022-12-15T20:36:02.416Z,99907.34
2022-12-15T20:38:35.914Z,99904.67
2022-12-15T20:41:08.206Z,99899.34
2022-12-15T20:43:40.793Z,99899.92
2022-12-15T20:46:18.800Z,99897.25
2022-12-15T20:48:53.011Z,99902.54
2022-12-15T20:51:27.124Z,99908.52
2022-12-15T20:54:01.675Z,99907.77
2022-12-15T20:56:33.841Z,99910.23
2022-12-15T20:59:06.215Z,99910.95
2022-12-15T21:01:40.272Z,99912.83
2022-12-15T21:04:25.504Z,99911.54
2022-12-15T21:06:58.224Z,99912.17
2022-12-15T21:09:31.221Z,99915.33
2022-12-15T21:12:09.043Z,99917.84
2022-12-15T21:14:41.498Z,99926.04
2022-12-15T21:17:17.410Z,99930.94
2022-12-15T21:19:49.954Z,99930.95
2022-12-15T21:22:25.219Z,99936.33
2022-12-15T21:25:00.511Z,99939.03
2022-12-15T21:27:32.730Z,99946.73
2022-12-15T21:30:07.753Z,99951.98
2022-12-15T21:32:38.324Z,99955.48
2022-12-15T21:35:14.208Z,99956.47
2022-12-15T21:37:47.805Z,99957.25
2022-12-15T21:40:24.542Z,99959.78
2022-12-15T21:42:57.827Z,99959.66
2022-12-15T21:45:29.992Z,99962.04
2022-12-15T21:48:19.923Z,99967.20
2022-12-15T21:50:52.435Z,99967.36
2022-12-15T21:53:25.109Z,99963.02
2022-12-15T21:55:57.915Z,99962.29
2022-12-15T21:58:30.439Z,99965.69
2022-12-15T22:01:03.671Z,99969.16
2022-12-15T22:03:37.237Z,99967.08
2022-12-15T22:06:17.699Z,99963.10
2022-12-15T22:08:50.943Z,99958.62
2022-12-15T22:11:27.284Z,99955.67
2022-12-15T22:14:03.396Z,99953.06
2022-12-15T22:16:35.615Z,99947.73
2022-12-15T22:19:14.620Z,99944.84
2022-12-15T22:21:46.765Z,99939.50
2022-12-15T22:24:19.216Z,99939.32
2022-12-15T22:26:51.684Z,99937.52
2022-12-15T22:29:25.160Z,99938.51
2022-12-15T22:31:57.788Z,99935.88
2022-12-15T22:34:30.801Z,99928.02
2022-12-15T22:37:03.046Z,99927.68
2022-12-15T22:39:35.342Z,99932.63
2022-12-15T22:42:12.120Z,99929.63
2022-12-15T22:44:45.312Z,99929.80
2022-12-15T22:47:17.654Z,99925.98
2022-12-15T22:49:49.929Z,99925.02
2022-12-15T22:52:24.227Z,99926.35
2022-12-15T22:54:58.515Z,99931.02
2022-12-15T22:57:31.015Z,99930.45
2022-12-15T23:00:07.479Z,99929.73
2022-12-15T23:02:43.694Z,99925.65
2022-12-15T23:05:19.200Z,99928.76
2022-12-15T23:07:51.591Z,99933.73
2022-12-15T23:10:42.092Z,99942.75
2022-12-15T23:13:14.233Z,99942.86
2022-12-15T23:16:04.353Z,99937.96
2022-12-15T23:18:36.720Z,99938.92
2022-12-15T23:21:09.783Z,99938.81
2022-12-15T23:23:41.903Z,99940.95
2022-12-15T23:26:14.993Z,99940.02
2022-12-15T23:28:47.441Z,99943.11
2022-12-15T23:31:20.242Z,99944.89
2022-12-15T23:33:52.931Z,99941.89
2022-12-15T23:36:25.558Z,99942.99
2022-12-15T23:39:00.186Z,99943.13
2022-12-15T23:41:33.198Z,99945.88
2022-12-15T23:44:05.725Z,99948.99
2022-12-15T23:46:37.985Z,99954.21
2022-12-15T23:49:10.140Z,99962.21
2022-12-15T23:51:42.434Z,99963.30
2022-12-15T23:54:14.577Z,99958.48
2022-12-15T23:56:46.720Z,99958.68
2022-12-15T23:59:18.913Z,99954.42
